createdAt,value
2018-06-16T00:00:37.709Z,69.88
2018-06-16T00:03:07.674Z,70.94
2018-06-16T00:05:37.510Z,70.06
2018-06-16T00:08:07.559Z,69.96
2018-06-16T00:10:37.594Z,69.41
2018-06-16T00:13:07.410Z,69.34
2018-06-16T00:15:37.205Z,71.18
2018-06-16T00:18:06.934Z,72.42
2018-06-16T00:20:36.476Z,73.14
2018-06-16T00:23:06.242Z,73.42
2018-06-16T00:25:36.030Z,72.66
2018-06-16T00:28:05.980Z,71.89
2018-06-16T00:30:35.714Z,70.71
2018-06-16T00:33:05.396Z,70.34
2018-06-16T00:35:35.177Z,71.67
2018-06-16T00:38:04.822Z,72.17
2018-06-16T00:40:34.533Z,71.84
2018-06-16T00:43:04.321Z,71.53
2018-06-16T00:45:34.098Z,71.52
2018-06-16T00:48:03.679Z,71.56
2018-06-16T00:50:33.504Z,70.62
2018-06-16T00:53:03.272Z,71.41
2018-06-16T00:55:32.981Z,70.92
2018-06-16T00:58:02.709Z,70.95
2018-06-16T01:00:32.636Z,70.94
2018-06-16T01:03:02.429Z,71.23
2018-06-16T01:05:32.261Z,71.84
2018-06-16T01:08:01.963Z,71.31
2018-06-16T01:10:31.662Z,72.18
2018-06-16T01:13:01.774Z,73.56
2018-06-16T01:15:31.489Z,73.64
2018-06-16T01:18:01.205Z,70.99
2018-06-16T01:20:31.047Z,72.93
2018-06-16T01:23:00.979Z,70.55
2018-06-16T01:25:30.660Z,70.95
2018-06-16T01:28:00.488Z,73.65
2018-06-16T01:30:30.377Z,75.36
2018-06-16T01:33:00.023Z,76.36
2018-06-16T01:35:29.800Z,76.10
2018-06-16T01:37:59.517Z,74.74
2018-06-16T01:40:29.272Z,75.45
2018-06-16T01:42:58.926Z,75.82
2018-06-16T01:45:28.622Z,75.97
2018-06-16T01:47:58.342Z,75.48
2018-06-16T01:50:28.048Z,74.29
2018-06-16T01:52:57.781Z,72.74
2018-06-16T01:55:27.545Z,74.09
2018-06-16T01:57:57.433Z,73.35
2018-06-16T02:00:27.161Z,71.85
2018-06-16T02:02:57.004Z,71.75
2018-06-16T02:05:26.750Z,70.64
2018-06-16T02:07:56.531Z,74.19
2018-06-16T02:10:26.305Z,73.51
2018-06-16T02:12:56.074Z,73.57
2018-06-16T02:15:25.904Z,73.10
2018-06-16T02:17:55.682Z,74.17
2018-06-16T02:20:25.511Z,73.25
2018-06-16T02:22:55.213Z,72.00
2018-06-16T02:25:24.975Z,73.52
2018-06-16T02:27:54.816Z,72.81
2018-06-16T02:30:24.525Z,73.96
2018-06-16T02:32:54.247Z,73.67
2018-06-16T02:35:24.028Z,74.15
2018-06-16T02:37:54.109Z,76.30
2018-06-16T02:40:23.852Z,75.93
2018-06-16T02:42:53.636Z,74.70
2018-06-16T02:45:23.360Z,74.89
2018-06-16T02:47:53.120Z,77.25
2018-06-16T02:50:22.951Z,78.66
2018-06-16T02:52:52.812Z,79.45
2018-06-16T02:55:22.596Z,79.38
2018-06-16T02:57:52.448Z,80.25
2018-06-16T03:00:22.237Z,80.32
2018-06-16T03:02:51.935Z,79.73
2018-06-16T03:05:21.653Z,79.01
2018-06-16T03:07:51.362Z,78.36
2018-06-16T03:10:21.201Z,76.09
2018-06-16T03:12:50.930Z,77.21
2018-06-16T03:15:20.707Z,76.40
2018-06-16T03:21:22.862Z,75.90
2018-06-16T03:23:52.646Z,75.46
2018-06-16T03:26:22.494Z,73.83
2018-06-16T03:34:42.414Z,71.10
2018-06-16T03:37:12.009Z,73.23
2018-06-16T03:39:42.094Z,76.46
2018-06-16T03:42:12.879Z,76.11
2018-06-16T03:44:42.645Z,76.35
2018-06-16T03:47:12.347Z,75.71
2018-06-16T03:49:42.109Z,75.75
2018-06-16T03:52:11.867Z,74.88
2018-06-16T03:54:41.816Z,73.62
2018-06-16T03:57:11.604Z,72.53
2018-06-16T03:59:41.479Z,73.64
2018-06-16T04:02:11.301Z,74.41
2018-06-16T04:04:41.006Z,74.76
2018-06-16T04:07:10.767Z,73.40
2018-06-16T04:09:40.522Z,75.73
2018-06-16T04:12:10.256Z,74.47
2018-06-16T04:14:39.965Z,73.33
2018-06-16T04:17:16.965Z,74.60
2018-06-16T04:19:46.792Z,74.94
2018-06-16T04:22:17.085Z,74.71
2018-06-16T04:24:46.933Z,75.29
2018-06-16T04:27:16.609Z,75.37
2018-06-16T04:29:46.285Z,76.20
2018-06-16T04:32:16.330Z,77.35
2018-06-16T04:34:46.156Z,71.92
2018-06-16T04:37:15.895Z,71.83
2018-06-16T04:39:45.685Z,73.03
2018-06-16T04:42:15.385Z,73.13
2018-06-16T04:44:45.129Z,72.18
2018-06-16T04:47:14.874Z,71.08
2018-06-16T04:49:44.545Z,72.69
2018-06-16T04:52:15.052Z,72.33
2018-06-16T04:54:45.416Z,72.97
2018-06-16T04:57:15.084Z,72.28
2018-06-16T04:59:44.816Z,70.82
2018-06-16T05:02:14.556Z,69.77
2018-06-16T05:04:44.243Z,70.43
2018-06-16T05:07:13.965Z,71.28
2018-06-16T05:09:43.668Z,71.93
2018-06-16T05:12:13.322Z,72.13
2018-06-16T05:14:42.965Z,71.97
2018-06-16T05:17:12.621Z,68.59
2018-06-16T05:19:42.390Z,69.34
2018-06-16T05:22:11.984Z,70.20
2018-06-16T05:24:41.760Z,69.91
2018-06-16T05:27:11.571Z,66.52
2018-06-16T05:29:41.309Z,67.74
2018-06-16T05:32:11.063Z,67.95
2018-06-16T05:34:40.878Z,67.77
2018-06-16T05:37:10.609Z,67.48
2018-06-16T05:39:40.131Z,66.48
2018-06-16T05:42:09.873Z,66.98
2018-06-16T05:44:39.481Z,66.40
2018-06-16T05:47:09.192Z,65.62
2018-06-16T05:49:38.928Z,63.75
2018-06-16T05:52:08.720Z,64.78
2018-06-16T05:54:38.443Z,64.43
2018-06-16T05:57:08.128Z,63.37
2018-06-16T05:59:37.827Z,63.12
2018-06-16T06:02:07.597Z,61.97
2018-06-16T06:04:37.398Z,62.19
2018-06-16T06:07:07.234Z,61.11
2018-06-16T06:09:37.088Z,61.27
2018-06-16T06:12:06.896Z,59.91
2018-06-16T06:14:36.566Z,62.30
2018-06-16T06:17:06.850Z,62.45
2018-06-16T06:19:36.679Z,61.98
2018-06-16T06:22:06.599Z,61.63
2018-06-16T06:24:36.416Z,60.49
2018-06-16T06:27:06.244Z,60.11
2018-06-16T06:29:36.023Z,61.46
2018-06-16T06:32:05.738Z,59.41
2018-06-16T06:34:35.499Z,60.32
2018-06-16T06:37:05.486Z,59.12
2018-06-16T06:39:35.534Z,59.18
2018-06-16T06:42:05.309Z,58.79
2018-06-16T06:44:35.291Z,57.34
2018-06-16T06:47:05.166Z,56.66
2018-06-16T06:49:34.796Z,57.57
2018-06-16T06:52:04.590Z,55.67
2018-06-16T06:54:34.998Z,55.10
2018-06-16T06:57:04.786Z,52.54
2018-06-16T06:59:35.738Z,55.43
2018-06-16T07:02:05.859Z,56.04
2018-06-16T07:04:35.636Z,55.79
2018-06-16T07:07:07.083Z,52.70
2018-06-16T07:09:36.816Z,54.79
2018-06-16T07:12:08.091Z,54.01
2018-06-16T07:14:38.328Z,52.01
2018-06-16T07:17:08.134Z,54.17
2018-06-16T07:19:37.991Z,50.73
2018-06-16T07:22:08.263Z,51.53
2018-06-16T07:24:38.157Z,49.45
2018-06-16T07:27:07.957Z,50.38
2018-06-16T07:29:37.724Z,49.47
2018-06-16T07:32:07.496Z,49.20
2018-06-16T07:34:37.151Z,47.40
2018-06-16T07:37:07.517Z,47.59
2018-06-16T07:39:37.250Z,47.97
2018-06-16T07:42:07.016Z,47.15
2018-06-16T07:44:36.621Z,46.59
2018-06-16T07:47:06.472Z,46.05
2018-06-16T07:49:36.236Z,46.33
2018-06-16T07:52:05.950Z,44.94
2018-06-16T07:54:35.892Z,44.51
2018-06-16T07:57:05.606Z,43.76
2018-06-16T07:59:35.294Z,44.48
2018-06-16T08:02:05.055Z,40.93
2018-06-16T08:04:34.821Z,42.17
2018-06-16T08:07:04.653Z,39.80
2018-06-16T08:09:34.493Z,38.58
2018-06-16T08:12:04.999Z,37.06
2018-06-16T08:14:34.783Z,38.24
2018-06-16T08:17:05.140Z,36.81
2018-06-16T08:19:34.835Z,40.00
2018-06-16T08:22:05.798Z,35.59
2018-06-16T08:24:35.600Z,39.63
2018-06-16T08:27:05.431Z,38.25
2018-06-16T08:29:35.685Z,35.25
2018-06-16T08:32:08.942Z,33.60
2018-06-16T08:34:38.619Z,34.60
2018-06-16T08:37:08.392Z,34.83
2018-06-16T08:39:38.233Z,33.84
2018-06-16T08:42:09.923Z,33.97
2018-06-16T08:44:39.656Z,34.27
2018-06-16T08:47:09.531Z,35.33
2018-06-16T08:49:39.236Z,35.02
2018-06-16T08:52:09.065Z,34.34
2018-06-16T08:54:38.865Z,34.91
2018-06-16T08:57:08.726Z,32.92
2018-06-16T08:59:38.468Z,33.91
2018-06-16T09:02:08.188Z,33.54
2018-06-16T09:04:37.871Z,32.09
2018-06-16T09:07:07.557Z,32.55
2018-06-16T09:09:37.235Z,31.77
2018-06-16T09:12:07.054Z,31.76
2018-06-16T09:14:36.737Z,33.35
2018-06-16T09:17:06.492Z,30.19
2018-06-16T09:19:36.232Z,27.76
2018-06-16T09:22:05.906Z,29.23
2018-06-16T09:24:35.595Z,31.27
2018-06-16T09:27:05.827Z,32.72
2018-06-16T09:29:35.540Z,32.38
2018-06-16T09:32:05.229Z,31.60
2018-06-16T09:34:35.103Z,33.70
2018-06-16T09:37:04.748Z,30.83
2018-06-16T09:39:34.578Z,30.12
2018-06-16T09:42:04.834Z,30.57
2018-06-16T09:44:34.551Z,30.51
2018-06-16T09:47:04.298Z,31.49
2018-06-16T09:49:33.969Z,33.25
2018-06-16T09:52:03.708Z,31.17
2018-06-16T09:54:33.389Z,33.41
2018-06-16T09:57:03.160Z,36.34
2018-06-16T09:59:32.849Z,34.54
2018-06-16T10:02:02.521Z,33.73
2018-06-16T10:04:32.282Z,33.94
2018-06-16T10:07:02.214Z,35.44
2018-06-16T10:09:31.945Z,35.52
2018-06-16T10:12:01.828Z,36.31
2018-06-16T10:14:31.582Z,35.85
2018-06-16T10:17:01.241Z,37.35
2018-06-16T10:19:31.005Z,37.24
2018-06-16T10:22:00.766Z,38.32
2018-06-16T10:24:30.443Z,36.83
2018-06-16T10:27:00.195Z,36.70
2018-06-16T10:29:30.055Z,35.76
2018-06-16T10:31:59.726Z,36.60
2018-06-16T10:34:29.220Z,36.84
2018-06-16T10:36:58.938Z,37.43
2018-06-16T10:39:28.667Z,37.22
2018-06-16T10:41:58.344Z,36.05
2018-06-16T10:44:28.395Z,37.98
2018-06-16T10:46:58.035Z,38.93
2018-06-16T10:49:27.736Z,38.54
2018-06-16T10:51:57.446Z,38.97
2018-06-16T10:54:27.860Z,39.42
2018-06-16T10:56:57.621Z,39.74
2018-06-16T10:59:27.456Z,41.21
2018-06-16T11:01:57.139Z,40.56
2018-06-16T11:04:26.740Z,41.23
2018-06-16T11:07:00.098Z,42.12
2018-06-16T11:09:29.997Z,43.51
2018-06-16T11:11:59.684Z,42.32
2018-06-16T11:14:29.417Z,42.16
2018-06-16T11:16:59.252Z,42.65
2018-06-16T11:19:29.040Z,41.25
2018-06-16T11:21:58.944Z,40.88
2018-06-16T11:24:28.672Z,40.06
2018-06-16T11:26:58.395Z,39.31
2018-06-16T11:29:28.127Z,39.42
2018-06-16T11:31:57.897Z,39.18
2018-06-16T11:34:27.670Z,39.97
2018-06-16T11:36:57.479Z,39.52
2018-06-16T11:39:27.294Z,41.23
2018-06-16T11:41:56.931Z,42.18
2018-06-16T11:44:26.881Z,42.44
2018-06-16T11:47:02.181Z,41.37
2018-06-16T11:49:39.791Z,42.51
2018-06-16T11:52:15.015Z,42.70
2018-06-16T11:54:55.926Z,43.68
2018-06-16T11:57:25.707Z,41.91
2018-06-16T11:59:55.481Z,42.86
2018-06-16T12:02:25.408Z,43.71
2018-06-16T12:04:55.834Z,42.89
2018-06-16T12:07:28.724Z,42.71
2018-06-16T12:09:58.676Z,44.52
2018-06-16T12:12:29.291Z,39.58
2018-06-16T12:14:59.170Z,41.73
2018-06-16T12:17:28.957Z,42.12
2018-06-16T12:19:58.738Z,42.43
2018-06-16T12:22:28.533Z,42.38
2018-06-16T12:24:58.815Z,43.29
2018-06-16T12:27:28.894Z,43.72
2018-06-16T12:30:06.924Z,43.08
2018-06-16T12:32:38.169Z,43.66
2018-06-16T12:35:07.758Z,44.81
2018-06-16T12:37:37.470Z,44.35
2018-06-16T12:40:07.237Z,44.45
2018-06-16T12:42:38.555Z,43.75
2018-06-16T12:45:08.435Z,44.02
2018-06-16T12:47:38.422Z,43.90
2018-06-16T12:50:08.469Z,43.07
2018-06-16T12:52:38.999Z,42.51
2018-06-16T12:55:08.854Z,41.38
2018-06-16T12:57:39.622Z,41.22
2018-06-16T13:00:09.391Z,43.72
2018-06-16T13:02:40.112Z,42.61
2018-06-16T13:05:21.501Z,43.20
2018-06-16T13:07:54.524Z,41.91
2018-06-16T13:10:24.642Z,40.34
2018-06-16T13:12:55.062Z,41.59
2018-06-16T13:15:24.805Z,41.04
2018-06-16T13:24:47.627Z,41.81
2018-06-16T13:30:02.749Z,44.16
2018-06-16T13:32:32.437Z,43.86
2018-06-16T13:35:06.538Z,43.46
2018-06-16T13:37:37.598Z,41.90
2018-06-16T13:40:07.401Z,43.55
2018-06-16T13:42:37.502Z,43.61
2018-06-16T13:45:07.486Z,42.47
2018-06-16T13:47:37.250Z,41.49
2018-06-16T13:50:07.445Z,42.61
2018-06-16T13:52:37.216Z,44.92
2018-06-16T13:55:07.033Z,46.40
2018-06-16T13:57:44.098Z,45.80
2018-06-16T14:00:14.332Z,44.83
2018-06-16T14:02:44.145Z,45.44
2018-06-16T14:05:14.700Z,44.80
2018-06-16T14:07:44.443Z,45.42
2018-06-16T14:10:15.442Z,45.05
2018-06-16T14:12:47.042Z,44.36
2018-06-16T14:15:17.712Z,44.74
2018-06-16T14:17:47.886Z,45.24
2018-06-16T14:20:17.832Z,46.23
2018-06-16T14:22:48.527Z,45.95
2018-06-16T14:25:18.816Z,46.86
2018-06-16T14:27:48.653Z,49.95
2018-06-16T14:30:20.923Z,51.19
2018-06-16T14:32:50.763Z,53.55
2018-06-16T14:38:09.458Z,54.94
2018-06-16T14:40:40.529Z,54.72
2018-06-16T14:43:10.299Z,56.41
2018-06-16T14:45:40.082Z,55.67
2018-06-16T14:48:10.011Z,53.92
2018-06-16T14:50:40.618Z,55.19
2018-06-16T14:53:10.385Z,54.75
2018-06-16T14:55:40.141Z,53.41
2018-06-16T14:58:09.980Z,53.81
2018-06-16T15:00:39.768Z,53.61
2018-06-16T15:03:09.760Z,52.56
2018-06-16T15:05:39.526Z,51.84
2018-06-16T15:08:09.304Z,50.88
2018-06-16T15:10:39.067Z,53.11
2018-06-16T15:13:09.605Z,52.83
2018-06-16T15:18:30.901Z,54.76
2018-06-16T15:21:04.611Z,54.96
2018-06-16T15:23:35.185Z,54.24
2018-06-16T15:26:04.990Z,55.82
2018-06-16T15:28:35.197Z,59.68
2018-06-16T15:31:05.780Z,60.94
2018-06-16T15:33:36.460Z,59.98
2018-06-16T15:36:06.256Z,60.20
2018-06-16T15:38:36.035Z,59.62
2018-06-16T15:41:07.516Z,57.76
2018-06-16T15:43:37.230Z,57.92
2018-06-16T15:46:07.032Z,56.98
2018-06-16T15:48:36.895Z,58.03
2018-06-16T15:51:07.773Z,60.68
2018-06-16T15:53:37.463Z,60.86
2018-06-16T15:56:07.415Z,60.48
2018-06-16T15:58:37.551Z,61.53
2018-06-16T16:01:09.397Z,62.23
2018-06-16T16:03:39.110Z,61.91
2018-06-16T16:06:08.912Z,61.09
2018-06-16T16:08:38.645Z,62.45
2018-06-16T16:11:09.709Z,60.38
2018-06-16T16:13:40.707Z,59.92
2018-06-16T16:16:10.522Z,61.11
2018-06-16T16:18:40.289Z,61.65
2018-06-16T16:21:10.576Z,59.42
2018-06-16T16:23:46.122Z,59.84
2018-06-16T16:26:16.116Z,59.31
2018-06-16T16:28:45.841Z,60.05
2018-06-16T16:31:16.690Z,60.47
2018-06-16T16:33:46.561Z,59.29
2018-06-16T16:36:16.365Z,59.98
2018-06-16T16:38:46.158Z,58.69
2018-06-16T16:41:16.508Z,58.72
2018-06-16T16:43:47.346Z,57.00
2018-06-16T16:46:16.968Z,58.26
2018-06-16T16:48:47.436Z,57.90
2018-06-16T16:51:18.979Z,56.21
2018-06-16T16:53:51.685Z,57.10
2018-06-16T16:56:25.647Z,56.66
2018-06-16T16:58:55.482Z,57.36
2018-06-16T17:01:26.371Z,56.43
2018-06-16T17:03:58.337Z,59.07
2018-06-16T17:09:13.144Z,57.52
2018-06-16T17:18:33.479Z,58.87
2018-06-16T17:21:12.167Z,58.46
2018-06-16T17:23:58.477Z,58.77
2018-06-16T17:27:11.056Z,59.55
2018-06-16T17:29:51.960Z,58.04
2018-06-16T17:32:21.734Z,58.09
2018-06-16T17:34:51.535Z,58.23
2018-06-16T17:37:21.261Z,58.40
2018-06-16T17:39:51.668Z,56.83
2018-06-16T17:42:21.614Z,57.76
2018-06-16T17:44:51.268Z,56.90
2018-06-16T17:47:21.046Z,58.97
2018-06-16T17:49:50.880Z,58.79
2018-06-16T17:52:20.906Z,60.21
2018-06-16T17:54:50.784Z,59.53
2018-06-16T17:57:20.541Z,58.85
2018-06-16T17:59:50.445Z,58.77
2018-06-16T18:02:20.136Z,59.17
2018-06-16T18:04:49.758Z,60.45
2018-06-16T18:07:20.581Z,64.08
2018-06-16T18:09:53.543Z,66.65
2018-06-16T18:12:23.378Z,66.76
2018-06-16T18:14:53.089Z,68.42
2018-06-16T18:17:22.948Z,70.88
2018-06-16T18:19:53.413Z,67.06
2018-06-16T18:22:23.138Z,65.95
2018-06-16T18:24:53.060Z,66.24
2018-06-16T18:27:22.790Z,64.05
2018-06-16T18:29:53.185Z,68.56
2018-06-16T18:32:22.962Z,69.49
2018-06-16T18:34:52.729Z,71.89
2018-06-16T18:37:22.367Z,74.33
2018-06-16T18:39:52.425Z,73.58
2018-06-16T18:42:22.110Z,73.20
2018-06-16T18:44:51.916Z,71.70
2018-06-16T18:47:21.781Z,71.41
2018-06-16T18:49:51.642Z,71.85
2018-06-16T18:52:21.445Z,71.39
2018-06-16T18:54:51.798Z,71.19
2018-06-16T18:57:21.713Z,69.01
2018-06-16T18:59:51.437Z,68.44
2018-06-16T19:02:21.203Z,68.18
2018-06-16T19:04:50.953Z,68.18
2018-06-16T19:07:20.555Z,67.61
2018-06-16T19:09:50.289Z,67.44
2018-06-16T19:13:44.279Z,70.57
2018-06-16T19:16:13.915Z,70.24
2018-06-16T19:18:43.560Z,69.94
2018-06-16T19:21:13.245Z,69.69
2018-06-16T19:23:43.041Z,70.74
2018-06-16T19:26:12.894Z,73.46
2018-06-16T19:28:42.635Z,72.78
2018-06-16T19:31:12.286Z,71.96
2018-06-16T19:33:42.179Z,72.92
2018-06-16T19:36:11.775Z,74.27
2018-06-16T19:38:41.564Z,73.92
2018-06-16T19:41:11.339Z,69.98
2018-06-16T19:43:40.911Z,71.18
2018-06-16T19:46:10.709Z,69.00
2018-06-16T19:48:40.457Z,72.21
2018-06-16T19:51:10.075Z,72.10
2018-06-16T19:53:39.824Z,72.26
2018-06-16T19:56:09.857Z,72.35
2018-06-16T19:58:40.698Z,72.61
2018-06-16T20:01:10.410Z,71.18
2018-06-16T20:03:40.148Z,72.71
2018-06-16T20:06:09.979Z,73.31
2018-06-16T20:08:40.580Z,69.27
2018-06-16T20:11:10.244Z,72.58
2018-06-16T20:13:39.900Z,71.77
2018-06-16T20:16:10.696Z,69.74
2018-06-16T20:18:41.572Z,68.05
2018-06-16T20:21:11.176Z,67.66
2018-06-16T20:23:40.974Z,68.21
2018-06-16T20:26:10.567Z,68.08
2018-06-16T20:28:40.221Z,67.26
2018-06-16T20:31:10.199Z,68.01
2018-06-16T20:33:39.783Z,69.53
2018-06-16T20:36:09.481Z,70.42
2018-06-16T20:38:39.112Z,69.41
2018-06-16T20:41:08.864Z,71.27
2018-06-16T20:43:38.530Z,70.07
2018-06-16T20:46:08.380Z,71.91
2018-06-16T20:48:37.885Z,71.87
2018-06-16T20:51:07.663Z,71.23
2018-06-16T20:53:37.740Z,71.18
2018-06-16T20:56:07.811Z,69.49
2018-06-16T20:58:38.087Z,69.94
2018-06-16T21:01:07.908Z,71.74
2018-06-16T21:03:37.652Z,72.21
2018-06-16T21:06:07.519Z,70.53
2018-06-16T21:08:37.292Z,71.10
2018-06-16T21:11:07.047Z,72.16
2018-06-16T21:13:36.835Z,71.66
2018-06-16T21:16:06.669Z,70.16
2018-06-16T21:18:36.336Z,68.70
2018-06-16T21:21:06.142Z,69.25
2018-06-16T21:23:35.872Z,67.53
2018-06-16T21:26:05.566Z,68.02
2018-06-16T21:28:35.244Z,67.44
2018-06-16T21:31:04.857Z,67.30
2018-06-16T21:33:34.570Z,66.51
2018-06-16T21:36:04.208Z,65.83
2018-06-16T21:38:33.860Z,66.12
2018-06-16T21:41:03.625Z,67.11
2018-06-16T21:43:33.544Z,68.07
2018-06-16T21:46:03.235Z,68.20
2018-06-16T21:48:32.911Z,70.77
2018-06-16T21:51:02.707Z,73.38
2018-06-16T21:53:32.435Z,73.55
2018-06-16T21:56:02.173Z,73.31
2018-06-16T21:58:31.859Z,71.27
2018-06-16T22:01:01.937Z,69.35
2018-06-16T22:03:31.707Z,68.44
2018-06-16T22:06:01.483Z,68.28
2018-06-16T22:08:32.762Z,68.24
2018-06-16T22:11:04.271Z,68.93
2018-06-16T22:13:33.860Z,70.37
2018-06-16T22:16:03.645Z,68.92
2018-06-16T22:18:34.135Z,72.50
2018-06-16T22:21:03.944Z,72.10
2018-06-16T22:23:33.743Z,74.06
2018-06-16T22:26:03.519Z,73.71
2018-06-16T22:28:33.183Z,73.61
2018-06-16T22:31:02.953Z,72.23
2018-06-16T22:33:32.715Z,70.84
2018-06-16T22:36:02.374Z,71.06
2018-06-16T22:38:32.123Z,69.64
2018-06-16T22:41:01.918Z,69.59
2018-06-16T22:43:31.683Z,69.56
2018-06-16T22:46:01.435Z,69.68
2018-06-16T22:48:31.011Z,68.77
2018-06-16T22:51:00.770Z,69.68
2018-06-16T22:53:30.542Z,69.71
2018-06-16T22:56:00.123Z,68.79
2018-06-16T22:58:29.679Z,69.51
2018-06-16T23:00:59.254Z,69.21
2018-06-16T23:03:28.871Z,69.53
2018-06-16T23:05:58.511Z,69.67
2018-06-16T23:08:28.262Z,69.99
2018-06-16T23:10:58.015Z,69.90
2018-06-16T23:13:27.773Z,69.20
2018-06-16T23:15:57.555Z,68.27
2018-06-16T23:18:27.343Z,67.85
2018-06-16T23:20:57.225Z,68.52
2018-06-16T23:23:27.019Z,69.96
2018-06-16T23:25:56.677Z,70.50
2018-06-16T23:28:26.441Z,69.15
2018-06-16T23:30:56.221Z,68.16
2018-06-16T23:33:26.122Z,69.78
2018-06-16T23:35:56.151Z,70.50
2018-06-16T23:38:25.977Z,72.90
2018-06-16T23:40:55.744Z,71.57
2018-06-16T23:43:25.504Z,70.72
2018-06-16T23:45:55.143Z,70.47
2018-06-16T23:48:24.908Z,72.38
2018-06-16T23:50:55.078Z,72.98
2018-06-16T23:53:24.655Z,71.54
2018-06-16T23:55:54.420Z,71.72
2018-06-16T23:58:24.124Z,70.21
